Time;durP1;ratioP1;P1;durP2;ratioP2;P2;SDS_P1;SDS_P2;PMS_P1;PMS_P2;Temp;Humidity;BMP_temperature;BMP_pressure;BME280_temperature;BME280_humidity;BME280_pressure;Samples;Min_cycle;Max_cycle;Signal;HPM_P1;HPM_P2
2023/08/07 04:22:34;;;;;;;4.22;1.88;;;;;;;11.93;100.00;100235.97;5109774;27;20166;-69
2023/08/07 04:25:00;;;;;;;5.10;2.47;;;;;;;11.98;100.00;100238.91;5109923;28;20440;-69
2023/08/07 04:27:26;;;;;;;8.68;4.55;;;;;;;12.06;100.00;100240.66;5108385;28;20546;-69
2023/08/07 04:29:52;;;;;;;7.32;3.00;;;;;;;12.08;100.00;100233.31;5109418;28;20031;-69
2023/08/07 04:32:18;;;;;;;4.63;2.53;;;;;;;12.11;100.00;100239.09;5108321;28;20040;-70
2023/08/07 04:34:43;;;;;;;5.75;2.53;;;;;;;12.14;100.00;100246.78;5109654;28;20028;-69
2023/08/07 04:37:08;;;;;;;7.78;3.17;;;;;;;12.18;100.00;100237.34;5109648;28;20497;-69
2023/08/07 04:39:34;;;;;;;9.20;2.83;;;;;;;12.20;100.00;100243.38;5109314;28;20031;-69
2023/08/07 04:41:59;;;;;;;3.88;1.88;;;;;;;12.22;100.00;100246.69;5109383;28;20035;-69
2023/08/07 04:44:25;;;;;;;3.75;1.73;;;;;;;12.26;100.00;100243.63;5109322;28;20048;-70
2023/08/07 04:46:50;;;;;;;6.47;2.30;;;;;;;12.26;100.00;100241.81;5109319;28;20032;-68
2023/08/07 04:49:16;;;;;;;6.40;2.60;;;;;;;12.29;100.00;100244.09;5108978;28;20040;-69
2023/08/07 04:51:41;;;;;;;8.82;2.08;;;;;;;12.32;100.00;100242.88;5109293;28;20036;-69
2023/08/07 04:54:06;;;;;;;5.35;2.13;;;;;;;12.36;100.00;100252.19;5109279;28;20040;-69
2023/08/07 04:56:32;;;;;;;3.70;2.17;;;;;;;12.42;100.00;100257.63;5109138;28;20036;-70
2023/08/07 04:58:57;;;;;;;6.28;2.30;;;;;;;12.42;100.00;100260.31;5108845;28;20119;-69
2023/08/07 05:01:22;;;;;;;5.00;2.42;;;;;;;12.44;100.00;100265.47;5108989;28;20535;-69
2023/08/07 05:03:48;;;;;;;7.35;2.40;;;;;;;12.45;100.00;100267.97;5109258;28;20150;-69
2023/08/07 05:06:13;;;;;;;4.47;2.22;;;;;;;12.46;100.00;100274.13;5108984;28;20097;-69
2023/08/07 05:08:39;;;;;;;4.30;2.33;;;;;;;12.48;100.00;100269.44;5108713;28;20058;-70
2023/08/07 05:11:04;;;;;;;5.63;2.47;;;;;;;12.54;100.00;100283.91;5108969;28;20032;-69
2023/08/07 05:13:29;;;;;;;3.70;2.03;;;;;;;12.52;100.00;100276.06;5108830;28;20489;-68
2023/08/07 05:15:55;;;;;;;4.55;2.00;;;;;;;12.57;100.00;100276.31;5108713;28;20036;-69
2023/08/07 05:18:20;;;;;;;9.13;3.47;;;;;;;12.59;100.00;100278.84;5108452;28;20418;-69
2023/08/07 05:20:45;;;;;;;6.40;2.22;;;;;;;12.62;100.00;100281.94;5108557;28;20042;-69
2023/08/07 05:23:11;;;;;;;4.28;2.63;;;;;;;12.62;100.00;100281.94;5108695;28;20494;-69
2023/08/07 05:25:37;;;;;;;8.65;3.47;;;;;;;12.65;100.00;100284.25;5108601;28;20040;-70
2023/08/07 05:28:02;;;;;;;7.00;3.10;;;;;;;12.70;100.00;100281.00;5108276;28;20058;-69
2023/08/07 05:30:28;;;;;;;3.83;2.50;;;;;;;12.76;100.00;100275.75;5108451;28;20541;-69
2023/08/07 05:32:54;;;;;;;7.93;2.20;;;;;;;12.75;100.00;100279.44;5100667;28;20085;-69
2023/08/07 05:35:20;;;;;;;6.40;2.60;;;;;;;12.79;100.00;100285.25;5094827;28;20036;-69
2023/08/07 05:37:45;;;;;;;5.80;2.22;;;;;;;12.84;100.00;100296.19;5094909;28;20052;-68
2023/08/07 05:40:13;;;;;;;3.88;2.60;;;;;;;12.87;100.00;100284.31;5094571;28;20053;-69
2023/08/07 05:42:40;;;;;;;7.90;2.90;;;;;;;12.91;100.00;100299.81;5094684;28;20430;-68
2023/08/07 05:45:06;;;;;;;8.65;3.33;;;;;;;12.93;100.00;100300.44;5094599;28;20036;-68
2023/08/07 05:47:32;;;;;;;4.03;2.25;;;;;;;12.93;100.00;100297.75;5094661;28;20379;-68
2023/08/07 05:49:57;;;;;;;3.92;2.28;;;;;;;13.02;100.00;100301.97;5094411;28;20056;-69
2023/08/07 05:52:23;;;;;;;5.80;2.47;;;;;;;13.03;100.00;100297.47;5094567;28;20462;-70
2023/08/07 05:54:48;;;;;;;5.63;2.42;;;;;;;13.06;100.00;100297.09;5094568;28;20036;-70
2023/08/07 05:57:14;;;;;;;4.63;2.58;;;;;;;13.10;100.00;100300.19;5094373;28;20383;-69
2023/08/07 05:59:40;;;;;;;6.35;2.83;;;;;;;13.10;100.00;100298.34;5094062;28;20046;-70
2023/08/07 06:02:06;;;;;;;5.45;2.33;;;;;;;13.15;100.00;100295.13;5094329;28;20290;-69
2023/08/07 06:04:31;;;;;;;7.43;2.95;;;;;;;13.23;100.00;100295.03;5094313;28;20040;-68
2023/08/07 06:06:57;;;;;;;12.32;2.75;;;;;;;13.22;100.00;100309.44;5091094;28;20089;-70
2023/08/07 06:09:22;;;;;;;6.70;2.30;;;;;;;13.23;100.00;100306.56;5094009;28;20451;-69
2023/08/07 06:11:48;;;;;;;7.40;2.85;;;;;;;13.24;100.00;100312.75;5094257;28;20069;-68
2023/08/07 06:14:14;;;;;;;7.35;2.85;;;;;;;13.24;100.00;100313.59;5094210;28;20532;-68
2023/08/07 06:16:39;;;;;;;7.50;2.83;;;;;;;13.23;100.00;100319.94;5093993;28;20032;-69
2023/08/07 06:19:04;;;;;;;9.32;3.35;;;;;;;13.24;100.00;100320.78;5093816;28;20044;-67
2023/08/07 06:21:30;;;;;;;6.65;2.58;;;;;;;13.17;100.00;100319.81;5093789;28;20062;-67
2023/08/07 06:23:57;;;;;;;6.07;2.83;;;;;;;13.16;100.00;100321.69;5093033;28;20070;-68
2023/08/07 06:26:22;;;;;;;6.20;2.47;;;;;;;13.21;100.00;100326.50;5081757;28;20123;-68
2023/08/07 06:28:48;;;;;;;5.97;2.63;;;;;;;13.26;100.00;100311.56;5081503;28;20120;-67
2023/08/07 06:31:16;;;;;;;4.88;2.60;;;;;;;13.32;100.00;100319.84;5084439;28;20020;-68
2023/08/07 06:33:41;;;;;;;8.05;2.58;;;;;;;13.43;100.00;100320.19;5082828;28;20043;-68
2023/08/07 06:36:08;;;;;;;5.57;3.30;;;;;;;13.56;100.00;100320.31;5082920;28;20060;-68
2023/08/07 06:38:34;;;;;;;7.03;3.22;;;;;;;13.66;100.00;100319.97;5083835;28;20028;-69
2023/08/07 06:41:00;;;;;;;11.90;3.33;;;;;;;13.81;100.00;100326.09;5082178;28;20043;-68
2023/08/07 06:43:25;;;;;;;7.10;2.90;;;;;;;13.93;100.00;100330.94;5082739;28;20040;-68
2023/08/07 06:45:54;;;;;;;9.60;2.83;;;;;;;14.03;100.00;100328.75;5083088;28;20064;-67
2023/08/07 06:48:20;;;;;;;9.50;3.45;;;;;;;14.10;100.00;100340.34;5082081;28;20029;-68
2023/08/07 06:50:49;;;;;;;9.98;2.65;;;;;;;14.13;99.58;100331.91;5082856;28;20803;-68
2023/08/07 06:53:15;;;;;;;8.05;2.42;;;;;;;14.14;98.93;100330.88;5083829;28;20036;-68
2023/08/07 06:55:43;;;;;;;6.20;2.55;;;;;;;14.19;98.11;100336.50;5082033;28;20082;-69
2023/08/07 06:58:10;;;;;;;7.05;2.92;;;;;;;14.21;98.15;100337.13;5082121;28;20028;-67
2023/08/07 07:00:36;;;;;;;5.97;2.40;;;;;;;14.22;98.74;100337.97;5083769;28;20023;-68
2023/08/07 07:03:02;;;;;;;6.03;3.25;;;;;;;14.26;98.46;100344.59;5082374;28;20107;-67
2023/08/07 07:05:28;;;;;;;5.25;2.50;;;;;;;14.30;96.47;100340.50;5082483;28;20133;-67
2023/08/07 07:07:54;;;;;;;10.52;2.45;;;;;;;14.36;97.41;100345.91;5083570;28;20062;-65
2023/08/07 07:10:20;;;;;;;5.32;2.38;;;;;;;14.45;96.20;100343.06;5081433;28;20028;-65
2023/08/07 07:12:45;;;;;;;5.55;2.20;;;;;;;14.42;97.06;100338.13;5082546;28;20387;-64
2023/08/07 07:15:10;;;;;;;6.75;2.95;;;;;;;14.46;96.69;100334.88;5083132;28;20044;-65
2023/08/07 07:17:36;;;;;;;8.00;2.50;;;;;;;14.51;96.31;100345.81;5078283;28;20093;-65
2023/08/07 07:20:01;;;;;;;7.70;2.85;;;;;;;14.46;96.92;100342.91;5072433;28;20565;-65
2023/08/07 07:22:28;;;;;;;10.07;3.03;;;;;;;14.54;94.66;100352.63;5072430;28;20040;-67
2023/08/07 07:24:54;;;;;;;8.88;2.67;;;;;;;14.63;94.24;100348.78;5072525;28;20071;-65
2023/08/07 07:27:19;;;;;;;4.78;2.28;;;;;;;14.62;94.35;100349.81;5072298;28;20476;-65
2023/08/07 07:29:45;;;;;;;5.72;2.72;;;;;;;14.69;93.46;100355.22;5071737;28;20056;-66
2023/08/07 07:32:10;;;;;;;6.40;2.72;;;;;;;14.84;92.72;100356.75;5072135;28;20044;-65
2023/08/07 07:34:36;;;;;;;6.88;2.35;;;;;;;15.01;91.01;100349.22;5072326;28;20041;-65
2023/08/07 07:37:01;;;;;;;6.10;2.78;;;;;;;15.22;90.40;100352.78;5072280;28;20410;-65
2023/08/07 07:39:26;;;;;;;9.65;2.42;;;;;;;15.29;88.82;100357.16;5072121;28;20032;-65
2023/08/07 07:41:52;;;;;;;5.03;2.20;;;;;;;15.37;87.17;100361.50;5072250;28;20460;-65
2023/08/07 07:44:17;;;;;;;3.75;1.92;;;;;;;15.29;87.59;100362.53;5072238;28;20044;-65
2023/08/07 07:46:42;;;;;;;5.43;3.05;;;;;;;15.25;87.84;100366.63;5072145;28;20052;-65
2023/08/07 07:49:08;;;;;;;2.92;1.80;;;;;;;15.31;88.06;100376.56;5072200;28;20036;-65
2023/08/07 07:51:35;;;;;;;3.88;2.20;;;;;;;15.31;86.67;100373.03;5072036;28;20041;-65
2023/08/07 07:54:01;;;;;;;5.47;1.98;;;;;;;15.26;81.23;100372.81;5072146;28;20123;-65
2023/08/07 07:56:26;;;;;;;5.40;2.00;;;;;;;15.31;82.89;100381.09;5071686;28;20099;-66
2023/08/07 07:58:52;;;;;;;6.15;2.30;;;;;;;15.32;86.86;100377.38;5071776;28;20056;-65
2023/08/07 08:01:18;;;;;;;4.95;1.95;;;;;;;15.38;82.20;100377.41;5072112;28;20509;-65
2023/08/07 08:03:43;;;;;;;6.10;1.90;;;;;;;15.42;82.80;100381.34;5072055;28;20124;-65
2023/08/07 08:06:11;;;;;;;3.42;1.83;;;;;;;15.52;80.75;100386.34;5071988;28;20098;-65
2023/08/07 08:08:36;;;;;;;4.97;1.98;;;;;;;15.61;81.91;100381.63;5071615;28;20487;-65
2023/08/07 08:11:02;;;;;;;5.90;2.15;;;;;;;15.70;82.67;100381.25;5071863;28;20048;-65
2023/08/07 08:13:27;;;;;;;6.07;2.03;;;;;;;15.80;80.88;100380.88;5072022;28;20040;-65
2023/08/07 08:15:52;;;;;;;5.03;1.90;;;;;;;15.93;77.30;100380.06;5071790;28;20043;-65
2023/08/07 08:18:18;;;;;;;5.60;1.70;;;;;;;16.11;76.41;100382.16;5071616;28;20066;-66
2023/08/07 08:20:43;;;;;;;3.30;1.75;;;;;;;16.39;75.23;100382.75;5071813;28;20037;-66
2023/08/07 08:23:09;;;;;;;4.55;1.65;;;;;;;16.47;71.60;100377.16;5071750;28;20044;-65
2023/08/07 08:25:34;;;;;;;7.53;1.90;;;;;;;16.58;71.80;100381.09;5071707;28;20051;-66
2023/08/07 08:28:00;;;;;;;3.42;1.80;;;;;;;16.71;75.25;100385.66;5071582;28;20068;-65
2023/08/07 08:30:26;;;;;;;3.25;1.45;;;;;;;16.84;71.76;100384.78;5071779;28;20115;-65
2023/08/07 08:32:51;;;;;;;5.13;1.70;;;;;;;16.93;71.28;100387.03;5071629;28;20041;-66
2023/08/07 08:35:16;;;;;;;3.17;1.50;;;;;;;16.97;67.57;100388.28;5071530;28;20028;-66
2023/08/07 08:37:42;;;;;;;5.05;1.52;;;;;;;16.99;67.60;100391.56;5071710;28;20613;-65
2023/08/07 08:40:11;;;;;;;3.92;1.70;;;;;;;16.99;65.41;100380.81;5071338;28;20138;-65
2023/08/07 08:42:39;;;;;;;6.82;2.50;;;;;;;17.09;64.88;100381.19;5071616;28;20119;-66
2023/08/07 08:45:05;;;;;;;3.45;1.42;;;;;;;17.23;65.84;100379.28;5071588;28;20048;-66
2023/08/07 08:47:32;;;;;;;3.38;1.70;;;;;;;17.39;66.34;100383.34;5071644;28;20040;-66
2023/08/07 08:50:08;;;;;;;2.20;1.40;;;;;;;17.40;61.47;100384.16;5071201;28;20047;-66
2023/08/07 08:52:36;;;;;;;5.28;1.40;;;;;;;17.51;65.36;100395.09;5071791;28;20036;-66
2023/08/07 08:55:02;;;;;;;3.95;1.45;;;;;;;17.47;62.88;100395.72;5071442;28;20097;-64
2023/08/07 08:57:29;;;;;;;4.72;2.28;;;;;;;17.41;64.07;100393.88;5071452;28;20518;-65
2023/08/07 08:59:56;;;;;;;3.40;1.67;;;;;;;17.55;63.14;100399.03;5071157;28;20059;-66
2023/08/07 09:02:21;;;;;;;4.55;1.58;;;;;;;17.61;62.10;100403.56;5071549;28;20037;-66
2023/08/07 09:04:47;;;;;;;4.45;1.58;;;;;;;17.43;62.70;100405.28;5071473;28;20032;-65
2023/08/07 09:07:15;;;;;;;3.00;1.40;;;;;;;17.44;62.86;100404.25;5071639;28;20406;-66
2023/08/07 09:09:41;;;;;;;5.13;1.40;;;;;;;17.58;64.16;100414.75;5074820;28;20127;-67
2023/08/07 09:12:22;;;;;;;3.73;2.13;;;;;;;17.69;61.22;100401.63;5074941;28;20040;-66
2023/08/07 09:14:56;;;;;;;2.83;1.50;;;;;;;17.77;61.78;100401.41;5075076;28;20452;-66
2023/08/07 09:17:29;;;;;;;5.00;2.05;;;;;;;17.95;60.14;100396.13;5074948;28;20177;-67
2023/08/07 09:19:54;;;;;;;4.15;1.63;;;;;;;18.08;61.35;100398.72;5074811;28;20040;-67
2023/08/07 09:22:20;;;;;;;2.15;1.30;;;;;;;18.30;60.29;100391.06;5075060;28;20028;-66
2023/08/07 09:24:46;;;;;;;2.58;1.45;;;;;;;18.28;58.26;100398.56;5074820;28;20044;-66
2023/08/07 09:27:12;;;;;;;3.17;1.80;;;;;;;18.40;59.69;100399.50;5074779;28;20032;-66
2023/08/07 09:29:40;;;;;;;4.68;1.45;;;;;;;18.63;60.89;100403.44;5074475;28;20040;-65
2023/08/07 09:32:12;;;;;;;3.05;1.40;;;;;;;18.79;58.60;100399.38;5074718;28;20178;-66
2023/08/07 09:34:42;;;;;;;2.28;1.50;;;;;;;18.90;58.58;100399.44;5074644;28;20541;-67
2023/08/07 09:37:11;;;;;;;4.22;1.65;;;;;;;18.97;55.59;100399.38;5074592;28;20101;-66
2023/08/07 09:39:37;;;;;;;5.97;1.50;;;;;;;19.10;55.60;100403.81;5074422;28;20486;-66
2023/08/07 09:42:03;;;;;;;8.07;1.60;;;;;;;19.06;51.78;100406.13;5074588;28;20033;-66
2023/08/07 09:44:36;;;;;;;1.80;1.30;;;;;;;19.15;52.90;100414.75;5074549;28;20040;-67
2023/08/07 09:47:11;;;;;;;2.35;1.35;;;;;;;18.99;54.02;100410.78;5074366;28;20056;-67
2023/08/07 09:49:37;;;;;;;5.47;1.42;;;;;;;19.33;54.84;100414.75;5074176;28;20475;-67
2023/08/07 09:52:07;;;;;;;2.78;1.55;;;;;;;19.50;53.71;100406.88;5074317;28;20037;-66
2023/08/07 09:54:33;;;;;;;3.05;1.27;;;;;;;19.43;53.21;100404.25;5074298;28;20048;-66
2023/08/07 09:57:00;;;;;;;2.83;1.50;;;;;;;19.18;52.52;100414.31;5074122;28;20032;-67
2023/08/07 09:59:27;;;;;;;4.47;1.50;;;;;;;19.22;53.12;100410.91;5073979;28;20066;-67
2023/08/07 10:01:54;;;;;;;3.40;1.48;;;;;;;19.70;55.98;100399.34;5074230;28;20023;-66
2023/08/07 10:04:21;;;;;;;2.78;1.02;;;;;;;20.11;53.65;100397.69;5074141;28;20040;-66
2023/08/07 10:06:46;;;;;;;2.50;1.55;;;;;;;20.49;51.42;100396.47;5074085;28;20129;-66
2023/08/07 10:09:12;;;;;;;2.88;1.50;;;;;;;20.82;51.65;100398.59;5073788;28;20068;-66
2023/08/07 10:11:39;;;;;;;2.28;1.42;;;;;;;21.26;51.67;100391.69;5073881;28;20064;-67
2023/08/07 10:14:05;;;;;;;3.65;1.60;;;;;;;21.17;50.09;100403.13;5075561;28;20047;-66
2023/08/07 10:16:31;;;;;;;2.20;1.30;;;;;;;21.10;49.24;100398.66;5082877;28;20111;-66
2023/08/07 10:18:57;;;;;;;3.08;1.48;;;;;;;21.34;47.38;100390.50;5084223;28;20107;-66
2023/08/07 10:21:24;;;;;;;3.92;1.42;;;;;;;21.62;48.03;100385.09;5083005;28;20068;-66
2023/08/07 10:23:56;;;;;;;2.90;1.33;;;;;;;21.67;50.18;100393.31;5082689;28;20154;-67
2023/08/07 10:26:23;;;;;;;3.35;1.48;;;;;;;22.18;47.93;100388.84;5083835;28;20077;-67
2023/08/07 10:28:51;;;;;;;2.58;1.60;;;;;;;22.07;48.19;100391.59;5084503;28;20041;-67
2023/08/07 10:31:18;;;;;;;4.22;1.40;;;;;;;22.05;47.73;100391.00;5093786;28;20043;-67
2023/08/07 10:33:44;;;;;;;1.90;1.40;;;;;;;22.11;46.58;100387.34;5093859;28;20475;-66
2023/08/07 10:36:10;;;;;;;3.05;1.40;;;;;;;22.04;46.36;100386.63;5093699;28;20048;-66
2023/08/07 10:38:36;;;;;;;2.22;1.60;;;;;;;21.56;45.99;100382.53;5093360;28;20067;-67
2023/08/07 10:41:02;;;;;;;2.45;1.30;;;;;;;20.85;46.30;100387.28;5093685;28;20055;-66
2023/08/07 10:43:29;;;;;;;1.83;1.27;;;;;;;20.40;46.42;100393.25;5093621;28;20430;-67
2023/08/07 10:46:03;;;;;;;2.58;1.13;;;;;;;20.41;46.56;100402.19;5093582;28;20406;-66
2023/08/07 10:48:29;;;;;;;1.67;1.15;;;;;;;20.20;46.93;100406.28;5093320;28;20036;-66
2023/08/07 10:50:54;;;;;;;4.45;1.70;;;;;;;20.10;48.05;100393.34;5093349;28;20123;-65
2023/08/07 10:53:31;;;;;;;3.30;1.40;;;;;;;19.84;48.55;100397.28;5093225;28;20040;-66
2023/08/07 10:55:57;;;;;;;2.50;1.50;;;;;;;19.79;49.49;100394.44;5093329;28;20375;-67
2023/08/07 10:58:37;;;;;;;3.25;1.20;;;;;;;19.65;50.61;100391.09;5093073;28;20266;-66
2023/08/07 11:01:19;;;;;;;2.30;1.20;;;;;;;19.63;51.61;100401.31;5093298;28;20067;-66
2023/08/07 11:03:44;;;;;;;4.40;1.67;;;;;;;19.39;51.64;100402.22;5093233;28;20032;-66
2023/08/07 11:06:11;;;;;;;1.30;0.90;;;;;;;19.40;53.51;100404.69;5093123;28;20479;-66
2023/08/07 11:08:37;;;;;;;2.38;1.35;;;;;;;19.05;51.93;100403.69;5092810;28;20502;-66
2023/08/07 11:11:06;;;;;;;2.17;1.38;;;;;;;18.98;54.02;100403.75;5092970;28;20486;-66
2023/08/07 11:13:32;;;;;;;6.40;1.65;;;;;;;18.87;53.07;100399.91;5093016;28;20459;-66
2023/08/07 11:15:59;;;;;;;2.13;1.30;;;;;;;18.80;55.57;100409.94;5093002;28;20046;-67
2023/08/07 11:18:25;;;;;;;2.63;1.37;;;;;;;18.68;55.81;100400.94;5092757;28;20047;-66
2023/08/07 11:20:52;;;;;;;1.58;1.23;;;;;;;18.54;55.60;100408.28;5092980;28;20452;-66
2023/08/07 11:23:23;;;;;;;3.33;1.35;;;;;;;18.42;57.50;100405.50;5092854;28;20093;-66
2023/08/07 11:25:48;;;;;;;2.00;1.15;;;;;;;18.30;55.77;100404.56;5082444;28;20048;-66
2023/08/07 11:28:14;;;;;;;3.03;1.30;;;;;;;18.17;58.50;100410.88;5081849;28;20028;-66
2023/08/07 11:30:40;;;;;;;3.05;1.30;;;;;;;18.17;56.10;100404.66;5082469;28;20454;-66
2023/08/07 11:33:05;;;;;;;3.17;1.58;;;;;;;18.07;57.25;100399.78;5080967;28;20026;-66
2023/08/07 11:35:31;;;;;;;2.58;1.17;;;;;;;18.18;56.43;100407.13;5082549;28;20073;-67
2023/08/07 11:37:56;;;;;;;2.95;1.50;;;;;;;18.08;58.42;100400.59;5080070;28;20036;-66
2023/08/07 11:40:23;;;;;;;1.85;1.30;;;;;;;18.07;57.13;100410.53;5083086;28;20043;-67
2023/08/07 11:42:48;;;;;;;2.47;1.30;;;;;;;18.04;57.73;100400.19;5080835;28;20040;-68
2023/08/07 11:45:15;;;;;;;3.45;1.40;;;;;;;18.07;57.52;100399.78;5081215;28;20289;-67
2023/08/07 11:47:41;;;;;;;2.17;1.38;;;;;;;18.07;56.16;100405.16;5080117;28;20028;-66
2023/08/07 11:50:07;;;;;;;2.45;1.40;;;;;;;18.14;56.85;100410.50;5088670;28;20131;-68
2023/08/07 11:52:32;;;;;;;2.35;1.65;;;;;;;18.09;56.49;100410.31;5092307;28;20040;-67
2023/08/07 11:54:57;;;;;;;2.17;1.13;;;;;;;18.12;57.07;100412.56;5092354;28;20047;-67
2023/08/07 11:57:24;;;;;;;3.70;1.27;;;;;;;18.08;58.83;100405.97;5092322;28;20032;-67
2023/08/07 11:59:50;;;;;;;1.75;1.20;;;;;;;18.12;57.66;100407.19;5092084;28;20050;-67
2023/08/07 12:02:16;;;;;;;3.95;1.65;;;;;;;18.17;58.41;100408.19;5092254;28;20040;-66
2023/08/07 12:04:41;;;;;;;1.92;1.50;;;;;;;18.12;58.85;100408.00;5092248;28;20054;-66
2023/08/07 12:07:10;;;;;;;1.83;1.40;;;;;;;18.23;59.27;100411.03;5092134;28;20055;-66
2023/08/07 12:09:36;;;;;;;2.63;1.60;;;;;;;18.26;61.47;100397.16;5082538;28;20119;-66
2023/08/07 12:12:02;;;;;;;1.75;1.45;;;;;;;18.50;58.64;100406.25;5071927;28;20506;-66
2023/08/07 12:14:29;;;;;;;2.03;1.60;;;;;;;18.89;60.81;100397.81;5071992;28;20033;-66
2023/08/07 12:16:55;;;;;;;3.35;1.20;;;;;;;19.25;57.05;100401.56;5071875;28;20498;-66
2023/08/07 12:19:20;;;;;;;2.53;1.70;;;;;;;19.40;54.08;100401.16;5071598;28;20041;-67
2023/08/07 12:21:45;;;;;;;4.38;1.92;;;;;;;19.41;53.38;100394.72;5071745;28;20047;-67
2023/08/07 12:24:12;;;;;;;4.35;1.50;;;;;;;20.03;51.40;100393.44;5071641;28;20032;-66
2023/08/07 12:26:38;;;;;;;2.55;1.35;;;;;;;20.80;49.36;100396.13;5071727;28;20036;-66
2023/08/07 12:29:03;;;;;;;2.40;1.52;;;;;;;21.29;50.99;100399.34;5071444;28;20050;-67
2023/08/07 12:31:29;;;;;;;2.55;1.35;;;;;;;21.87;48.54;100384.75;5071786;28;20032;-66
2023/08/07 12:33:54;;;;;;;3.90;1.60;;;;;;;22.50;48.29;100395.56;5071828;28;20398;-66
2023/08/07 12:36:20;;;;;;;2.55;1.30;;;;;;;22.81;44.88;100394.09;5071654;28;20105;-66
2023/08/07 12:38:46;;;;;;;2.25;1.75;;;;;;;22.97;44.55;100399.53;5071468;28;20103;-66
2023/08/07 12:41:11;;;;;;;4.25;1.50;;;;;;;22.86;43.58;100397.75;5071770;28;20029;-65
2023/08/07 12:43:37;;;;;;;3.33;1.50;;;;;;;22.43;44.88;100402.00;5074427;28;20372;-68
2023/08/07 12:46:03;;;;;;;3.35;1.48;;;;;;;22.16;44.08;100393.66;5075695;28;20059;-66
2023/08/07 12:48:28;;;;;;;3.50;1.50;;;;;;;21.91;46.26;100402.19;5075475;28;20044;-66
2023/08/07 12:50:54;;;;;;;3.28;1.77;;;;;;;21.56;46.71;100402.31;5074161;28;20045;-67
2023/08/07 12:53:19;;;;;;;2.28;1.50;;;;;;;21.08;46.10;100397.25;5081561;28;20101;-67
2023/08/07 12:55:45;;;;;;;1.58;1.25;;;;;;;21.42;46.36;100394.72;5095762;28;20055;-67
2023/08/07 12:58:11;;;;;;;2.53;1.60;;;;;;;22.35;45.56;100396.94;5095312;28;20042;-67
2023/08/07 13:00:36;;;;;;;3.47;1.25;;;;;;;22.98;42.03;100392.22;5095709;28;20060;-67
2023/08/07 13:03:01;;;;;;;2.20;1.52;;;;;;;23.05;42.69;100398.28;5095082;28;20044;-67
2023/08/07 13:05:29;;;;;;;3.78;1.38;;;;;;;22.81;43.48;100396.81;5095015;28;20036;-67
2023/08/07 13:07:58;;;;;;;2.60;1.40;;;;;;;22.88;45.03;100390.16;5095498;28;20046;-67
2023/08/07 13:10:24;;;;;;;2.58;1.30;;;;;;;22.50;45.31;100390.16;5095536;28;20047;-66
2023/08/07 13:12:49;;;;;;;1.85;1.50;;;;;;;22.19;42.55;100384.22;5095363;28;20044;-66
2023/08/07 13:15:16;;;;;;;2.85;1.27;;;;;;;21.49;44.34;100384.56;5095443;28;20028;-67
2023/08/07 13:17:42;;;;;;;2.00;1.50;;;;;;;21.45;43.70;100386.91;5095402;28;20051;-67
2023/08/07 13:20:10;;;;;;;2.97;1.70;;;;;;;21.65;45.54;100398.19;5094871;28;20715;-67
2023/08/07 13:22:40;;;;;;;1.75;1.20;;;;;;;22.21;43.28;100391.03;5095502;28;20047;-66
2023/08/07 13:25:07;;;;;;;4.63;1.60;;;;;;;23.28;42.80;100392.59;5077537;28;20056;-66
2023/08/07 13:27:34;;;;;;;2.80;1.50;;;;;;;23.95;40.59;100396.88;5094227;28;20036;-67
2023/08/07 13:30:00;;;;;;;3.13;1.42;;;;;;;23.80;41.83;100389.41;5094761;28;20115;-67
2023/08/07 13:32:26;;;;;;;2.80;1.77;;;;;;;23.42;42.41;100406.63;5094357;28;20040;-67
2023/08/07 13:34:52;;;;;;;2.55;1.27;;;;;;;23.40;43.46;100397.06;5093132;28;20397;-67
2023/08/07 13:37:17;;;;;;;2.63;1.15;;;;;;;23.39;44.12;100393.53;5093542;28;20414;-67
2023/08/07 13:39:43;;;;;;;2.50;1.27;;;;;;;23.70;45.84;100383.84;5093291;28;20040;-67
2023/08/07 13:42:10;;;;;;;3.05;1.30;;;;;;;23.72;47.01;100380.88;5093776;28;20016;-67
2023/08/07 13:44:36;;;;;;;2.13;1.33;;;;;;;23.01;43.88;100389.78;5093670;28;20040;-66
2023/08/07 13:47:01;;;;;;;2.03;1.30;;;;;;;22.12;44.61;100383.56;5094795;28;20039;-66
2023/08/07 13:49:27;;;;;;;4.00;1.30;;;;;;;21.70;46.57;100408.25;5094678;28;20403;-66
2023/08/07 13:51:52;;;;;;;1.95;1.40;;;;;;;21.19;48.49;100411.81;5094562;28;20040;-66
2023/08/07 13:54:17;;;;;;;2.47;1.25;;;;;;;20.67;49.10;100417.16;5094183;28;20036;-66
2023/08/07 13:56:43;;;;;;;2.63;1.52;;;;;;;20.41;49.22;100416.56;5094422;28;20040;-66
2023/08/07 13:59:09;;;;;;;3.13;1.35;;;;;;;19.95;51.08;100420.81;5094319;28;20052;-67
2023/08/07 14:01:35;;;;;;;3.63;1.30;;;;;;;19.85;51.07;100420.53;5094455;28;20478;-67
2023/08/07 14:04:01;;;;;;;2.53;1.60;;;;;;;19.52;52.04;100418.25;5094344;28;20058;-68
2023/08/07 14:06:27;;;;;;;2.10;1.45;;;;;;;19.57;52.33;100410.31;5094258;28;20097;-68
2023/08/07 14:08:52;;;;;;;2.13;1.55;;;;;;;19.62;53.59;100418.56;5094186;28;20464;-67
2023/08/07 14:11:19;;;;;;;3.58;2.35;;;;;;;19.68;53.70;100420.34;5094345;28;20429;-67
2023/08/07 14:13:46;;;;;;;4.40;2.70;;;;;;;19.87;54.07;100431.94;5094529;28;20024;-66
2023/08/07 14:16:11;;;;;;;2.17;1.55;;;;;;;20.14;53.39;100429.66;5094184;28;20032;-67
2023/08/07 14:18:37;;;;;;;1.75;1.30;;;;;;;20.22;53.40;100432.06;5093954;28;20039;-67
2023/08/07 14:21:02;;;;;;;2.47;1.58;;;;;;;20.02;51.91;100437.75;5094145;28;20051;-67
2023/08/07 14:23:28;;;;;;;2.65;1.50;;;;;;;19.81;52.49;100432.84;5094148;28;20047;-67
2023/08/07 14:25:53;;;;;;;2.15;1.50;;;;;;;19.70;53.06;100431.78;5094108;28;20048;-67
2023/08/07 14:28:19;;;;;;;2.33;1.30;;;;;;;19.62;53.62;100434.75;5093722;28;20040;-68
2023/08/07 14:30:45;;;;;;;4.63;1.80;;;;;;;19.62;55.11;100444.75;5093842;28;20447;-67
2023/08/07 14:33:10;;;;;;;2.45;1.50;;;;;;;19.55;55.23;100441.28;5093771;28;20105;-67
2023/08/07 14:35:36;;;;;;;3.80;1.58;;;;;;;19.46;56.07;100438.91;5093753;28;20040;-67
2023/08/07 14:38:01;;;;;;;3.15;1.65;;;;;;;19.44;55.85;100440.19;5093514;28;20036;-67
2023/08/07 14:40:27;;;;;;;3.13;1.52;;;;;;;19.32;55.97;100439.28;5093624;28;20043;-67
2023/08/07 14:42:53;;;;;;;2.55;1.42;;;;;;;19.41;55.94;100443.31;5093783;28;20521;-67
2023/08/07 14:45:20;;;;;;;3.92;1.50;;;;;;;19.42;56.38;100440.38;5093584;28;20064;-67
2023/08/07 14:47:45;;;;;;;3.08;1.73;;;;;;;19.47;55.15;100437.84;5093576;28;20044;-67
2023/08/07 14:50:11;;;;;;;2.13;1.63;;;;;;;19.69;55.14;100431.97;5093359;28;20035;-67
2023/08/07 14:52:36;;;;;;;2.70;1.40;;;;;;;19.93;54.80;100441.84;5093418;28;20491;-67
2023/08/07 14:55:03;;;;;;;3.80;1.50;;;;;;;19.95;53.59;100439.75;5093342;28;20036;-67
2023/08/07 14:57:28;;;;;;;4.40;1.55;;;;;;;20.17;52.93;100433.81;5093319;28;20036;-67
2023/08/07 14:59:54;;;;;;;2.65;1.67;;;;;;;20.17;53.65;100433.81;5093127;28;20044;-67
2023/08/07 15:02:19;;;;;;;2.13;1.65;;;;;;;20.04;53.24;100421.31;5093270;28;20035;-67
2023/08/07 15:04:44;;;;;;;2.88;1.60;;;;;;;20.13;52.89;100425.31;5092943;28;20156;-67
2023/08/07 15:07:10;;;;;;;2.30;1.70;;;;;;;20.05;53.14;100426.47;5092872;28;20583;-67
2023/08/07 15:09:35;;;;;;;4.85;1.40;;;;;;;20.06;53.78;100438.13;5092943;28;20117;-68
2023/08/07 15:12:01;;;;;;;2.85;1.42;;;;;;;19.92;53.40;100434.78;5093017;28;20044;-67
2023/08/07 15:14:26;;;;;;;2.75;1.50;;;;;;;20.03;53.91;100435.88;5091906;28;20062;-67
2023/08/07 15:16:51;;;;;;;2.55;1.88;;;;;;;20.06;54.02;100435.41;5092994;28;20032;-67
2023/08/07 15:19:17;;;;;;;4.63;1.35;;;;;;;19.90;54.10;100431.50;5092661;28;20127;-67
2023/08/07 15:21:42;;;;;;;1.60;1.30;;;;;;;19.92;51.34;100428.56;5092935;28;20032;-68
2023/08/07 15:24:08;;;;;;;1.95;1.48;;;;;;;19.94;53.09;100427.25;5091724;28;20814;-68
2023/08/07 15:26:33;;;;;;;5.50;1.52;;;;;;;19.92;53.47;100428.56;5092790;28;20051;-67
2023/08/07 15:28:59;;;;;;;2.47;1.50;;;;;;;19.97;53.84;100424.09;5092761;28;20032;-67
2023/08/07 15:31:24;;;;;;;3.85;1.48;;;;;;;20.07;53.03;100431.66;5092701;28;20036;-68
2023/08/07 15:33:52;;;;;;;3.15;1.30;;;;;;;20.07;52.21;100423.53;5092868;28;20123;-67
2023/08/07 15:36:18;;;;;;;2.00;1.60;;;;;;;19.95;53.45;100417.25;5092627;28;20042;-67
2023/08/07 15:38:43;;;;;;;3.30;1.80;;;;;;;19.94;52.69;100421.03;5092312;28;20032;-67
2023/08/07 15:41:11;;;;;;;3.17;1.42;;;;;;;19.90;53.12;100428.78;5092648;28;20478;-67